Time;durP1;ratioP1;P1;durP2;ratioP2;P2;SDS_P1;SDS_P2;PMS_P1;PMS_P2;Temp;Humidity;BMP_temperature;BMP_pressure;BME280_temperature;BME280_humidity;BME280_pressure;Samples;Min_cycle;Max_cycle;Signal;HPM_P1;HPM_P2
2021/12/09 00:01:50;;;;;;;18.13;6.63;;;0.60;99.90;196.50;224877.00;;;;4938059;29;20200;-91
2021/12/09 00:04:26;;;;;;;13.80;6.13;;;0.60;99.90;196.50;224877.00;;;;4937275;29;20228;-88
2021/12/09 00:06:55;;;;;;;16.63;6.27;;;0.70;99.90;196.50;224877.00;;;;4897634;28;20291;-91
2021/12/09 00:09:22;;;;;;;13.47;5.70;;;0.70;99.90;196.50;224877.00;;;;4941361;29;20536;-88
2021/12/09 00:11:50;;;;;;;13.00;5.67;;;0.70;99.90;196.50;224877.00;;;;4957253;28;20196;-89
2021/12/09 00:14:25;;;;;;;9.47;5.43;;;0.70;99.90;196.50;224877.00;;;;4941487;29;20261;-91
2021/12/09 00:16:57;;;;;;;12.87;6.00;;;0.70;99.90;196.50;224877.00;;;;4926061;29;20187;-91
2021/12/09 00:19:25;;;;;;;16.70;6.07;;;0.70;99.90;196.50;224877.00;;;;4941604;29;20187;-91
2021/12/09 00:21:52;;;;;;;17.17;5.63;;;0.70;99.90;196.50;224877.00;;;;4938319;29;20184;-91
2021/12/09 00:24:20;;;;;;;18.37;6.57;;;0.70;99.90;196.50;224877.00;;;;4922201;29;20192;-90
2021/12/09 00:26:47;;;;;;;13.10;6.37;;;0.60;99.90;196.50;224877.00;;;;4938628;29;20279;-91
2021/12/09 00:29:16;;;;;;;24.73;6.87;;;0.70;99.90;196.50;224877.00;;;;4912257;28;20573;-90
2021/12/09 00:31:44;;;;;;;14.47;5.27;;;0.70;99.90;196.50;224877.00;;;;4926084;29;20754;-91
2021/12/09 00:34:11;;;;;;;16.30;5.83;;;0.70;99.90;196.50;224877.00;;;;4936743;29;20307;-90
2021/12/09 00:36:42;;;;;;;13.03;5.47;;;0.70;99.90;196.50;224877.00;;;;4921928;29;20199;-93
2021/12/09 00:39:12;;;;;;;16.00;5.67;;;0.70;99.90;196.50;224877.00;;;;4939907;29;20880;-90
2021/12/09 00:41:39;;;;;;;11.30;5.07;;;0.70;99.90;196.50;224877.00;;;;4941202;28;20209;-91
2021/12/09 00:44:08;;;;;;;19.30;5.23;;;0.70;99.90;196.50;224877.00;;;;4924130;29;20489;-89
2021/12/09 00:46:38;;;;;;;16.50;5.77;;;0.70;99.90;196.50;224877.00;;;;4941035;29;20277;-91
2021/12/09 00:49:07;;;;;;;10.60;5.60;;;0.70;99.90;196.50;224877.00;;;;4940704;29;20206;-91
2021/12/09 00:51:35;;;;;;;12.97;4.90;;;0.70;99.90;196.50;224877.00;;;;4940694;29;20218;-90
2021/12/09 00:54:03;;;;;;;12.33;5.20;;;0.70;99.90;196.50;224877.00;;;;4940223;29;20560;-90
2021/12/09 00:56:31;;;;;;;12.77;4.77;;;0.60;99.90;196.50;224877.00;;;;4940656;29;20674;-90
2021/12/09 00:58:58;;;;;;;13.23;4.93;;;0.60;99.90;196.50;224877.00;;;;4939176;29;20203;-90
2021/12/09 01:01:25;;;;;;;9.60;4.63;;;0.60;99.90;196.50;224877.00;;;;4940143;29;20294;-90
2021/12/09 01:03:52;;;;;;;13.00;4.80;;;0.60;99.90;196.50;224877.00;;;;4956750;28;20199;-91
2021/12/09 01:06:19;;;;;;;13.17;4.77;;;0.60;99.90;196.50;224877.00;;;;4939654;29;20218;-90
2021/12/09 01:08:46;;;;;;;14.00;4.27;;;0.50;99.90;196.50;224877.00;;;;4940478;29;20191;-89
2021/12/09 01:11:14;;;;;;;10.57;4.60;;;0.50;99.90;196.50;224877.00;;;;4921466;29;20208;-89
2021/12/09 01:13:42;;;;;;;11.57;5.13;;;0.40;99.90;196.50;224877.00;;;;4938749;29;20191;-90
2021/12/09 01:16:11;;;;;;;12.80;5.40;;;0.50;99.90;196.50;224877.00;;;;4923602;29;20234;-89
2021/12/09 01:18:40;;;;;;;17.53;5.60;;;0.40;99.90;196.50;224877.00;;;;4924081;28;20242;-87
2021/12/09 01:21:10;;;;;;;13.10;5.87;;;0.40;99.90;196.50;224877.00;;;;4957183;28;20191;-91
2021/12/09 01:23:38;;;;;;;14.53;5.83;;;0.40;99.90;196.50;224877.00;;;;4940027;29;20199;-88
2021/12/09 01:26:06;;;;;;;11.93;5.60;;;0.40;99.90;196.50;224877.00;;;;4954438;28;20219;-89
2021/12/09 01:28:46;;;;;;;11.53;5.63;;;0.40;99.90;196.50;224877.00;;;;4939859;29;21012;-89
2021/12/09 01:31:21;;;;;;;13.90;5.20;;;0.40;99.90;196.50;224877.00;;;;4939487;29;20225;-90
2021/12/09 01:33:51;;;;;;;11.53;4.77;;;0.40;99.90;196.50;224877.00;;;;4940008;29;20681;-90
2021/12/09 01:36:19;;;;;;;19.77;6.33;;;0.40;99.90;196.50;224877.00;;;;4923326;29;20187;-91
2021/12/09 01:38:47;;;;;;;13.03;6.03;;;0.40;99.90;196.50;224877.00;;;;4923700;29;20674;-89
2021/12/09 01:41:14;;;;;;;13.93;5.73;;;0.50;99.90;196.50;224877.00;;;;4957191;28;20195;-89
2021/12/09 01:43:41;;;;;;;11.87;6.43;;;0.50;99.90;196.50;224877.00;;;;4955783;28;20701;-89
2021/12/09 01:46:18;;;;;;;14.10;6.50;;;0.50;99.90;196.50;224877.00;;;;4954390;29;20564;-90
2021/12/09 01:48:47;;;;;;;9.27;5.47;;;0.50;99.90;196.50;224877.00;;;;4923569;29;20681;-89
2021/12/09 01:51:15;;;;;;;10.97;5.50;;;0.50;99.90;196.50;224877.00;;;;4956584;29;20654;-92
2021/12/09 01:53:45;;;;;;;16.70;5.87;;;0.50;99.90;196.50;224877.00;;;;4939456;29;20201;-92
2021/12/09 01:56:21;;;;;;;9.77;4.97;;;0.50;99.90;196.50;224877.00;;;;4938384;29;20195;-90
2021/12/09 01:59:01;;;;;;;14.77;5.10;;;0.50;99.90;196.50;224877.00;;;;4938993;29;20199;-91
2021/12/09 02:01:30;;;;;;;10.40;4.37;;;0.40;99.90;196.50;224877.00;;;;4938465;29;20187;-92
2021/12/09 02:03:59;;;;;;;8.00;4.43;;;0.40;99.90;196.50;224877.00;;;;4922050;29;20593;-92
2021/12/09 02:06:29;;;;;;;9.07;4.60;;;0.40;99.90;196.50;224877.00;;;;4921904;28;20703;-91
2021/12/09 02:08:56;;;;;;;12.03;4.93;;;0.30;99.90;196.50;224877.00;;;;4939383;29;20658;-88
2021/12/09 02:11:25;;;;;;;19.33;4.83;;;0.40;99.90;196.50;224877.00;;;;4940732;29;20191;-90
2021/12/09 02:13:56;;;;;;;12.23;4.97;;;0.30;99.90;196.50;224877.00;;;;4928292;29;20674;-89
2021/12/09 02:16:24;;;;;;;14.97;5.07;;;0.30;99.90;196.50;224877.00;;;;4943141;29;20191;-90
2021/12/09 02:18:51;;;;;;;8.93;4.63;;;0.30;99.90;196.50;224877.00;;;;4943248;29;20195;-90
2021/12/09 02:21:21;;;;;;;11.67;5.60;;;0.30;99.90;196.50;224877.00;;;;4929888;29;20222;-92
2021/12/09 02:24:14;;;;;;;10.30;5.27;;;0.30;99.90;196.50;224877.00;;;;4929932;29;20250;-88
2021/12/09 02:26:45;;;;;;;8.20;4.80;;;0.30;99.90;196.50;224877.00;;;;4943858;29;20283;-90
2021/12/09 02:29:18;;;;;;;12.00;4.43;;;0.30;99.90;196.50;224877.00;;;;4902754;29;20549;-90
2021/12/09 02:31:47;;;;;;;12.00;4.50;;;0.30;99.90;196.50;224877.00;;;;4923531;29;20613;-90
2021/12/09 02:34:14;;;;;;;8.87;4.80;;;0.30;99.90;196.50;224877.00;;;;4932089;29;20233;-87
2021/12/09 02:36:42;;;;;;;11.83;4.20;;;0.30;99.90;196.50;224877.00;;;;4957563;29;20187;-90
2021/12/09 02:39:14;;;;;;;11.10;5.10;;;0.20;99.90;196.50;224877.00;;;;4938982;29;20196;-91
2021/12/09 02:41:42;;;;;;;14.67;4.03;;;0.20;99.90;196.50;224877.00;;;;4939040;29;20200;-89
2021/12/09 02:44:14;;;;;;;10.07;4.27;;;0.30;99.90;196.50;224877.00;;;;4938917;29;20184;-91
2021/12/09 02:46:41;;;;;;;9.60;4.00;;;0.20;99.90;196.50;224877.00;;;;4922755;29;20753;-91
2021/12/09 02:49:13;;;;;;;9.10;4.30;;;0.20;99.90;196.50;224877.00;;;;4913858;29;20682;-91
2021/12/09 02:51:41;;;;;;;10.57;4.40;;;0.20;99.90;196.50;224877.00;;;;4942715;29;20198;-90
2021/12/09 02:54:12;;;;;;;8.57;3.60;;;0.20;99.90;196.50;224877.00;;;;4936074;29;20223;-90
2021/12/09 02:56:42;;;;;;;5.33;2.97;;;0.20;99.90;196.50;224877.00;;;;4923164;29;20639;-89
2021/12/09 02:59:11;;;;;;;9.00;3.50;;;0.20;99.90;196.50;224877.00;;;;4907327;29;20734;-91
2021/12/09 03:01:57;;;;;;;9.23;3.17;;;0.20;99.90;196.50;224877.00;;;;4907659;29;20703;-90
2021/12/09 03:04:43;;;;;;;12.70;3.67;;;0.20;84.90;196.50;224877.00;;;;4911393;29;20550;-92
2021/12/09 03:07:26;;;;;;;17.00;3.80;;;0.20;66.70;196.50;224877.00;;;;4922563;29;20254;-90
2021/12/09 03:09:59;;;;;;;13.63;3.27;;;0.20;69.10;196.50;224877.00;;;;4932318;28;20216;-90
2021/12/09 03:12:39;;;;;;;10.80;3.43;;;0.20;73.00;196.50;224877.00;;;;4941871;29;20658;-91
2021/12/09 03:15:07;;;;;;;10.73;3.30;;;0.20;60.80;196.50;224877.00;;;;4954149;28;20202;-91
2021/12/09 03:17:37;;;;;;;10.13;2.90;;;0.20;69.80;196.50;224877.00;;;;4907239;29;20258;-91
2021/12/09 03:20:11;;;;;;;11.87;3.37;;;0.20;89.00;196.50;224877.00;;;;4932882;29;20250;-89
2021/12/09 03:22:39;;;;;;;12.03;3.50;;;0.20;81.50;196.50;224877.00;;;;4958536;28;20278;-90
2021/12/09 03:25:11;;;;;;;12.53;3.83;;;0.20;72.50;196.50;224877.00;;;;4940505;29;20254;-86
2021/12/09 03:27:39;;;;;;;12.07;4.00;;;0.10;76.80;196.50;224877.00;;;;4940978;29;20702;-88
2021/12/09 03:30:10;;;;;;;14.77;3.40;;;0.20;83.40;196.50;224877.00;;;;4940304;29;20207;-88
2021/12/09 03:32:38;;;;;;;8.47;3.70;;;0.20;66.60;196.50;224877.00;;;;4957135;28;20195;-90
2021/12/09 03:35:06;;;;;;;10.07;3.27;;;0.20;74.30;196.50;224877.00;;;;4922891;29;20223;-89
2021/12/09 03:37:33;;;;;;;10.70;3.70;;;0.20;76.00;196.50;224877.00;;;;4921498;29;20675;-89
2021/12/09 03:40:00;;;;;;;9.27;3.50;;;0.10;67.10;196.50;224877.00;;;;4919921;29;20191;-90
2021/12/09 03:42:30;;;;;;;9.57;3.33;;;0.10;64.20;196.50;224877.00;;;;4921963;29;20270;-90
2021/12/09 03:44:59;;;;;;;13.00;4.10;;;0.10;75.30;196.50;224877.00;;;;4954492;29;20551;-88
2021/12/09 03:47:30;;;;;;;9.90;3.60;;;0.10;83.40;196.50;224877.00;;;;4940436;29;20215;-91
2021/12/09 03:50:02;;;;;;;13.77;3.90;;;0.10;80.60;196.50;224877.00;;;;4956089;29;20231;-89
2021/12/09 03:52:29;;;;;;;9.73;3.60;;;0.20;86.60;196.50;224877.00;;;;4940914;29;20643;-88
2021/12/09 03:54:58;;;;;;;14.27;3.70;;;0.10;85.80;196.50;224877.00;;;;4937410;29;20235;-90
2021/12/09 03:57:25;;;;;;;9.73;3.70;;;0.10;93.30;196.50;224877.00;;;;4922008;29;20267;-89
2021/12/09 03:59:53;;;;;;;16.30;4.03;;;0.10;98.60;196.50;224877.00;;;;4905781;29;20196;-90
2021/12/09 04:02:20;;;;;;;12.17;3.83;;;0.10;96.60;196.50;224877.00;;;;4921161;29;20223;-89
2021/12/09 04:04:48;;;;;;;9.47;3.57;;;0.10;93.90;196.50;224877.00;;;;4951734;29;20726;-90
2021/12/09 04:07:15;;;;;;;12.40;3.70;;;0.10;98.10;196.50;224877.00;;;;4955688;28;20227;-89
2021/12/09 04:09:42;;;;;;;10.20;3.57;;;0.10;99.60;196.50;224877.00;;;;4936171;29;20256;-90
2021/12/09 04:12:09;;;;;;;8.77;3.40;;;0.10;99.90;196.50;224877.00;;;;4921267;29;20663;-89
2021/12/09 04:14:37;;;;;;;6.00;2.90;;;0.00;99.90;196.50;224877.00;;;;4915859;29;20196;-89
2021/12/09 04:17:04;;;;;;;7.63;3.23;;;0.00;86.10;196.50;224877.00;;;;4940706;29;20202;-89
2021/12/09 04:19:32;;;;;;;6.53;2.70;;;-0.10;77.50;196.50;224877.00;;;;4924387;28;20625;-90
2021/12/09 04:21:59;;;;;;;15.23;3.80;;;-0.10;69.10;196.50;224877.00;;;;4940607;29;20259;-90
2021/12/09 04:24:26;;;;;;;9.17;2.97;;;-0.20;71.20;196.50;224877.00;;;;4924384;29;20238;-92
2021/12/09 04:26:54;;;;;;;9.73;2.80;;;-0.20;66.70;196.50;224877.00;;;;4940446;29;20250;-89
2021/12/09 04:29:21;;;;;;;12.97;2.93;;;-0.20;88.60;196.50;224877.00;;;;4924465;29;20662;-90
2021/12/09 04:31:49;;;;;;;7.23;3.30;;;-0.30;92.20;196.50;224877.00;;;;4924688;29;20195;-89
2021/12/09 04:34:17;;;;;;;8.73;3.00;;;-0.30;99.90;196.50;224877.00;;;;4920281;29;20216;-91
2021/12/09 04:36:45;;;;;;;10.63;3.33;;;-0.40;88.50;196.50;224877.00;;;;4921216;29;20210;-89
2021/12/09 04:39:12;;;;;;;12.40;3.20;;;-0.40;89.80;196.50;224877.00;;;;4918609;29;20250;-91
2021/12/09 04:41:39;;;;;;;8.80;3.03;;;-0.40;91.10;196.50;224877.00;;;;4924269;29;20199;-89
2021/12/09 04:44:08;;;;;;;9.23;3.23;;;-0.40;99.90;196.50;224877.00;;;;4927519;29;20215;-89
2021/12/09 04:46:36;;;;;;;12.33;3.53;;;-0.50;99.90;196.50;224877.00;;;;4920695;29;20222;-89
2021/12/09 04:49:07;;;;;;;9.83;3.37;;;-0.50;99.90;196.50;224877.00;;;;4932032;29;20274;-89
2021/12/09 04:51:35;;;;;;;11.80;3.77;;;-0.50;99.90;196.50;224877.00;;;;4940360;29;20714;-90
2021/12/09 04:54:07;;;;;;;11.97;3.80;;;-0.40;99.90;196.50;224877.00;;;;4929741;29;20198;-88
2021/12/09 04:56:35;;;;;;;12.03;3.93;;;-0.40;99.90;196.50;224877.00;;;;4905464;29;20600;-90
2021/12/09 04:59:03;;;;;;;8.63;4.03;;;-0.40;99.90;196.50;224877.00;;;;4906159;29;20192;-90
2021/12/09 05:01:30;;;;;;;12.43;5.00;;;-0.30;99.90;196.50;224877.00;;;;4905621;29;20196;-90
2021/12/09 05:03:58;;;;;;;11.33;4.70;;;-0.30;99.90;196.50;224877.00;;;;4935059;29;20251;-89
2021/12/09 05:06:29;;;;;;;10.37;4.73;;;-0.30;99.90;196.50;224877.00;;;;4920694;29;20310;-90
2021/12/09 05:09:05;;;;;;;12.17;5.43;;;-0.30;99.90;196.50;224877.00;;;;4920720;29;20188;-89
2021/12/09 05:14:20;;;;;;;13.70;5.00;;;-0.20;99.90;196.50;224877.00;;;;4939280;29;20202;-90
2021/12/09 05:16:52;;;;;;;12.73;5.17;;;-0.20;99.90;196.50;224877.00;;;;4924570;29;20203;-90
2021/12/09 05:19:20;;;;;;;10.57;4.77;;;-0.20;99.90;196.50;224877.00;;;;4939663;29;20567;-89
2021/12/09 05:21:48;;;;;;;10.47;5.03;;;-0.20;99.90;196.50;224877.00;;;;4924393;29;20275;-88
2021/12/09 05:24:16;;;;;;;12.33;4.63;;;-0.10;99.90;196.50;224877.00;;;;4908035;28;20207;-87
2021/12/09 05:26:49;;;;;;;14.33;5.60;;;-0.10;99.90;196.50;224877.00;;;;4939177;29;20679;-88
2021/12/09 05:29:21;;;;;;;13.80;5.60;;;-0.10;99.90;196.50;224877.00;;;;4923783;28;20555;-90
2021/12/09 05:34:48;;;;;;;13.87;5.23;;;-0.20;99.90;196.50;224877.00;;;;4938739;29;20752;-88
2021/12/09 05:37:21;;;;;;;15.07;5.53;;;-0.20;99.90;196.50;224877.00;;;;4939629;29;20210;-90
2021/12/09 05:39:50;;;;;;;11.07;5.60;;;-0.20;99.90;196.50;224877.00;;;;4939351;29;20199;-93
2021/12/09 05:42:20;;;;;;;17.87;5.63;;;-0.20;99.90;196.50;224877.00;;;;4924606;29;20230;-91
2021/12/09 05:44:47;;;;;;;14.50;4.73;;;-0.10;99.90;196.50;224877.00;;;;4940774;29;20211;-91
2021/12/09 05:47:15;;;;;;;12.73;5.00;;;-0.10;99.90;196.50;224877.00;;;;4921203;29;20203;-90
2021/12/09 05:49:47;;;;;;;12.43;5.03;;;-0.10;99.90;196.50;224877.00;;;;4921925;29;20192;-90
2021/12/09 05:52:15;;;;;;;14.07;5.17;;;-0.10;99.90;196.50;224877.00;;;;4930296;29;20650;-91
2021/12/09 05:54:43;;;;;;;10.33;5.70;;;-0.10;99.90;196.50;224877.00;;;;4956242;28;20203;-90
2021/12/09 05:57:11;;;;;;;13.77;5.00;;;-0.10;99.90;196.50;224877.00;;;;4921726;29;20687;-92
2021/12/09 05:59:41;;;;;;;11.17;5.40;;;-0.10;99.90;196.50;224877.00;;;;4952039;29;20678;-90
2021/12/09 06:02:18;;;;;;;10.03;4.60;;;-0.10;99.90;196.50;224877.00;;;;4920224;29;20208;-89
2021/12/09 06:04:45;;;;;;;12.00;5.37;;;0.00;99.90;196.50;224877.00;;;;4905199;29;20246;-90
2021/12/09 06:07:14;;;;;;;11.00;4.93;;;0.00;99.90;196.50;224877.00;;;;4938691;29;20261;-89
2021/12/09 06:09:41;;;;;;;11.00;4.77;;;0.00;99.90;196.50;224877.00;;;;4939264;29;20596;-87
2021/12/09 06:12:09;;;;;;;12.47;5.03;;;0.00;99.90;196.50;224877.00;;;;4921234;29;20187;-89
2021/12/09 06:14:52;;;;;;;7.60;5.00;;;0.00;99.90;196.50;224877.00;;;;4930463;29;20203;-90
2021/12/09 06:17:46;;;;;;;11.97;5.27;;;0.10;99.90;196.50;224877.00;;;;4936959;29;20196;-93
2021/12/09 06:20:15;;;;;;;10.03;5.60;;;0.10;99.90;196.50;224877.00;;;;4913888;29;20258;-92
2021/12/09 06:22:49;;;;;;;15.37;6.00;;;0.10;99.90;196.50;224877.00;;;;4939686;29;20199;-91
2021/12/09 06:25:18;;;;;;;12.77;5.80;;;0.10;99.90;196.50;224877.00;;;;4947063;28;20195;-90
2021/12/09 06:27:48;;;;;;;13.90;5.80;;;0.10;99.90;196.50;224877.00;;;;4939113;29;20700;-91
2021/12/09 06:30:20;;;;;;;11.97;5.07;;;0.10;99.90;196.50;224877.00;;;;4934834;29;20202;-90
2021/12/09 06:33:05;;;;;;;14.63;5.63;;;0.20;99.90;196.50;224877.00;;;;4894514;29;20247;-91
2021/12/09 06:35:33;;;;;;;10.33;5.17;;;0.20;99.90;196.50;224877.00;;;;4939360;29;20222;-90
2021/12/09 06:38:01;;;;;;;13.40;5.10;;;0.20;99.90;196.50;224877.00;;;;4939495;28;20211;-93
2021/12/09 06:40:28;;;;;;;11.73;6.30;;;0.20;99.90;196.50;224877.00;;;;4915717;29;20459;-93
2021/12/09 06:42:58;;;;;;;11.60;5.27;;;0.20;99.90;196.50;224877.00;;;;4928599;29;20270;-92
2021/12/09 06:45:34;;;;;;;12.37;5.50;;;0.20;99.90;196.50;224877.00;;;;4960895;28;20223;-91
2021/12/09 06:48:01;;;;;;;14.13;5.93;;;0.10;99.90;196.50;224877.00;;;;4955652;28;20227;-91
2021/12/09 06:50:29;;;;;;;13.37;6.17;;;0.10;99.90;196.50;224877.00;;;;4959357;28;20192;-91
2021/12/09 06:52:56;;;;;;;14.07;6.13;;;0.10;99.90;196.50;224877.00;;;;4940532;29;20677;-91
2021/12/09 06:55:23;;;;;;;15.90;6.93;;;0.10;99.90;196.50;224877.00;;;;4927510;29;20203;-91
2021/12/09 06:57:52;;;;;;;13.53;5.83;;;0.10;99.90;196.50;224877.00;;;;4942961;29;20201;-93
2021/12/09 07:00:30;;;;;;;17.60;6.43;;;0.10;99.90;196.50;224877.00;;;;4942309;29;20191;-89
2021/12/09 07:02:58;;;;;;;10.73;5.67;;;0.10;99.90;196.50;224877.00;;;;4926535;29;20203;-92
2021/12/09 07:05:31;;;;;;;11.83;5.90;;;0.10;99.90;196.50;224877.00;;;;4922152;29;20288;-91
2021/12/09 07:08:06;;;;;;;11.97;6.27;;;0.10;99.90;196.50;224877.00;;;;4931026;29;20230;-92
2021/12/09 07:10:34;;;;;;;10.37;5.57;;;0.10;99.90;196.50;224877.00;;;;4959775;28;20191;-92
2021/12/09 07:13:05;;;;;;;10.10;5.87;;;0.10;99.90;196.50;224877.00;;;;4941210;29;20203;-91
2021/12/09 07:15:36;;;;;;;10.93;5.80;;;0.10;99.90;196.50;224877.00;;;;4925650;29;20659;-91
2021/12/09 07:18:05;;;;;;;16.17;6.20;;;0.10;99.90;196.50;224877.00;;;;4925858;29;20199;-92
2021/12/09 07:20:33;;;;;;;15.03;6.00;;;0.10;99.90;196.50;224877.00;;;;4940044;29;20671;-91
2021/12/09 07:23:10;;;;;;;8.60;5.33;;;0.10;99.90;196.50;224877.00;;;;4925719;29;20613;-91
2021/12/09 07:25:51;;;;;;;10.60;5.70;;;0.10;99.90;196.50;224877.00;;;;4928579;29;20207;-91
2021/12/09 07:28:32;;;;;;;13.83;5.70;;;0.20;99.90;196.50;224877.00;;;;4944759;29;20231;-90
2021/12/09 07:35:49;;;;;;;;;;;;;;;;;;;;;
2021/12/09 07:38:48;;;;;;;9.30;5.13;;;0.20;99.90;196.50;224877.00;;;;4950249;29;20578;-91
2021/12/09 07:41:26;;;;;;;8.30;5.33;;;0.30;99.90;196.50;224877.00;;;;4945311;29;20206;-90
2021/12/09 07:43:56;;;;;;;10.60;6.27;;;0.30;99.90;196.50;224877.00;;;;4933614;29;20191;-90
2021/12/09 07:46:35;;;;;;;12.10;6.53;;;0.20;99.90;196.50;224877.00;;;;4925163;29;20263;-93
2021/12/09 07:49:07;;;;;;;14.43;7.77;;;0.30;99.90;196.50;224877.00;;;;4957573;28;20199;-93
2021/12/09 07:51:36;;;;;;;13.93;7.00;;;0.40;99.90;196.50;224877.00;;;;4951506;29;20187;-92
2021/12/09 07:54:04;;;;;;;14.03;7.73;;;0.40;99.90;196.50;224877.00;;;;4940082;29;20200;-90
2021/12/09 07:56:31;;;;;;;13.13;8.00;;;0.50;99.90;196.50;224877.00;;;;4934215;29;20215;-90
2021/12/09 07:59:00;;;;;;;12.90;7.70;;;0.40;93.90;196.50;224877.00;;;;4928630;29;20195;-93
2021/12/09 08:01:29;;;;;;;11.13;7.70;;;0.50;74.90;196.50;224877.00;;;;4943903;29;20319;-92
2021/12/09 08:03:59;;;;;;;13.33;7.47;;;0.50;70.10;196.50;224877.00;;;;4940721;28;20180;-92
2021/12/09 08:10:35;;;;;;;13.07;7.37;;;0.60;19.50;196.50;224877.00;;;;4957311;29;20221;-91
2021/12/09 08:13:08;;;;;;;14.63;7.00;;;0.60;1.50;196.50;224877.00;;;;4942447;29;20195;-95
2021/12/09 08:16:17;;;;;;;8.83;6.97;;;0.70;1.00;196.50;224877.00;;;;4950341;29;20590;-93
2021/12/09 08:19:06;;;;;;;13.17;6.67;;;0.70;1.00;196.50;224877.00;;;;4962294;28;20187;-94
2021/12/09 08:21:51;;;;;;;;;;;;;;;;;;;;;
2021/12/09 08:24:28;;;;;;;11.57;6.70;;;0.70;1.00;196.50;224877.00;;;;4941840;28;20210;-91
2021/12/09 08:26:56;;;;;;;11.97;6.60;;;0.80;1.00;196.50;224877.00;;;;4933123;29;20619;-91
2021/12/09 08:29:24;;;;;;;9.77;6.27;;;0.80;1.00;196.50;224877.00;;;;4922689;29;20621;-93
2021/12/09 08:31:52;;;;;;;14.63;5.90;;;0.80;1.00;196.50;224877.00;;;;4942358;29;20283;-92
2021/12/09 08:34:20;;;;;;;15.23;5.13;;;0.80;1.00;196.50;224877.00;;;;4941255;28;20222;-91
2021/12/09 08:36:54;;;;;;;10.70;5.57;;;0.80;1.00;196.50;224877.00;;;;4926533;29;20673;-90
2021/12/09 08:39:31;;;;;;;7.57;4.53;;;0.90;1.00;196.50;224877.00;;;;4942259;28;20612;-93
2021/12/09 08:42:05;;;;;;;10.33;5.20;;;0.90;1.00;196.50;224877.00;;;;4948160;28;20192;-94
2021/12/09 08:44:33;;;;;;;11.83;4.67;;;1.00;1.00;196.50;224877.00;;;;4939317;28;20192;-93
2021/12/09 08:47:01;;;;;;;10.63;4.80;;;1.00;1.00;196.50;224877.00;;;;4941434;29;20674;-93
2021/12/09 08:49:28;;;;;;;6.83;4.43;;;1.10;1.00;196.50;224877.00;;;;4938646;29;20195;-94
2021/12/09 08:51:55;;;;;;;13.10;4.10;;;1.10;1.00;196.50;224877.00;;;;4923774;29;20247;-90
2021/12/09 08:54:23;;;;;;;5.43;4.13;;;1.20;99.90;196.50;224877.00;;;;4924930;28;20203;-92
2021/12/09 08:56:51;;;;;;;10.30;4.90;;;1.20;99.90;196.50;224877.00;;;;4941103;28;20199;-93
2021/12/09 08:59:26;;;;;;;6.80;4.83;;;1.30;99.90;196.50;224877.00;;;;4935796;29;20191;-92
2021/12/09 09:02:07;;;;;;;7.20;4.23;;;1.30;99.90;196.50;224877.00;;;;4935798;29;20195;-91
2021/12/09 09:04:34;;;;;;;14.73;4.40;;;1.30;99.90;196.50;224877.00;;;;4905960;29;20196;-94
2021/12/09 09:07:14;;;;;;;6.60;3.50;;;1.30;99.90;196.50;224877.00;;;;4920464;29;20627;-91
2021/12/09 09:09:56;;;;;;;5.60;3.60;;;1.30;99.90;196.50;224877.00;;;;4936920;29;20196;-92
2021/12/09 09:12:31;;;;;;;4.63;3.10;;;1.30;99.90;196.50;224877.00;;;;4934715;29;20192;-92
2021/12/09 09:15:00;;;;;;;12.00;3.43;;;1.30;99.90;196.50;224877.00;;;;4920809;29;20200;-90
2021/12/09 09:17:34;;;;;;;6.97;3.50;;;1.30;99.90;196.50;224877.00;;;;4937026;29;20210;-89
2021/12/09 09:20:06;;;;;;;9.30;3.97;;;1.40;99.90;196.50;224877.00;;;;4923307;29;20288;-90
2021/12/09 09:22:38;;;;;;;6.40;3.43;;;1.40;99.90;196.50;224877.00;;;;4922740;29;20183;-91
2021/12/09 09:25:10;;;;;;;6.60;3.10;;;1.40;99.90;196.50;224877.00;;;;4922690;29;20206;-90
2021/12/09 09:27:37;;;;;;;6.70;3.40;;;1.50;99.90;196.50;224877.00;;;;4941545;29;20226;-92
2021/12/09 09:30:07;;;;;;;5.63;3.03;;;1.50;99.90;196.50;224877.00;;;;4953149;29;20204;-88
2021/12/09 09:32:35;;;;;;;6.90;3.50;;;1.50;99.90;196.50;224877.00;;;;4905887;29;20226;-88
2021/12/09 09:35:02;;;;;;;7.87;3.10;;;1.60;81.00;196.50;224877.00;;;;4907737;29;20247;-88
2021/12/09 09:37:29;;;;;;;9.03;2.80;;;1.70;28.70;196.50;224877.00;;;;4924227;29;20199;-90
2021/12/09 09:40:10;;;;;;;7.47;3.37;;;1.70;37.10;196.50;224877.00;;;;4951972;28;20206;-91
2021/12/09 09:45:11;;;;;;;5.20;3.23;;;1.70;1.00;196.50;224877.00;;;;4937590;28;20203;-92
2021/12/09 09:47:41;;;;;;;6.20;3.43;;;1.50;1.00;196.50;224877.00;;;;4953212;28;20684;-96
2021/12/09 09:50:10;;;;;;;5.67;3.53;;;1.50;1.00;196.50;224877.00;;;;4921888;29;20259;-91
2021/12/09 09:52:38;;;;;;;8.60;4.43;;;1.50;1.00;196.50;224877.00;;;;4954076;28;20204;-96
2021/12/09 09:55:09;;;;;;;8.30;4.57;;;1.40;1.00;196.50;224877.00;;;;4940779;29;20537;-91
2021/12/09 09:57:37;;;;;;;10.57;5.00;;;1.30;1.00;196.50;224877.00;;;;4950467;29;20201;-92
2021/12/09 10:00:13;;;;;;;11.93;5.60;;;1.20;53.10;196.50;224877.00;;;;4939212;29;20187;-90
2021/12/09 10:03:03;;;;;;;7.60;5.50;;;1.10;99.90;196.50;224877.00;;;;4937760;29;20204;-95
2021/12/09 10:05:36;;;;;;;7.80;5.83;;;1.10;99.90;196.50;224877.00;;;;4939255;29;20191;-90
2021/12/09 10:08:05;;;;;;;13.23;7.10;;;1.00;99.90;196.50;224877.00;;;;4951250;28;20231;-89
2021/12/09 10:10:33;;;;;;;12.87;7.70;;;1.00;99.90;196.50;224877.00;;;;4932282;29;20205;-91
2021/12/09 10:13:07;;;;;;;14.57;7.90;;;0.90;99.90;196.50;224877.00;;;;4941639;29;20195;-93
2021/12/09 10:15:49;;;;;;;14.60;7.97;;;0.90;99.90;196.50;224877.00;;;;4936795;29;20195;-93
2021/12/09 10:18:37;;;;;;;12.00;8.37;;;0.90;99.90;196.50;224877.00;;;;4953107;29;20217;-95
2021/12/09 10:21:08;;;;;;;14.17;8.50;;;0.90;99.90;196.50;224877.00;;;;4954342;29;20192;-94
2021/12/09 10:29:39;;;;;;;14.50;7.90;;;0.90;99.90;196.50;224877.00;;;;5038063;23;20234;-92
2021/12/09 10:32:24;;;;;;;13.60;8.50;;;0.90;99.90;196.50;224877.00;;;;4906214;29;20203;-89
2021/12/09 10:35:20;;;;;;;14.87;7.73;;;0.90;99.90;196.50;224877.00;;;;4909268;29;20691;-90
2021/12/09 10:37:53;;;;;;;14.83;7.80;;;0.90;99.90;196.50;224877.00;;;;4891647;29;20219;-93
2021/12/09 10:40:29;;;;;;;13.33;7.03;;;1.00;99.90;196.50;224877.00;;;;4925188;29;20290;-91
2021/12/09 10:43:02;;;;;;;12.97;7.20;;;1.10;99.90;196.50;224877.00;;;;4908768;29;20210;-92
2021/12/09 10:45:39;;;;;;;10.27;6.70;;;1.20;99.90;196.50;224877.00;;;;4909371;29;20191;-93
2021/12/09 10:48:35;;;;;;;9.10;5.77;;;1.30;99.90;196.50;224877.00;;;;4923885;29;20227;-88
2021/12/09 10:53:46;;;;;;;8.47;5.70;;;1.40;99.90;196.50;224877.00;;;;4938815;29;20199;-89
2021/12/09 10:56:26;;;;;;;11.90;5.77;;;1.50;1.00;196.50;224877.00;;;;4922843;29;20200;-90
2021/12/09 10:58:53;;;;;;;12.77;5.73;;;1.60;1.00;196.50;224877.00;;;;4923342;29;20667;-89
2021/12/09 11:01:24;;;;;;;6.33;4.30;;;1.90;1.00;196.50;224877.00;;;;4924215;29;20544;-90
2021/12/09 11:04:00;;;;;;;11.10;5.00;;;2.30;1.00;196.50;224877.00;;;;4954978;29;20207;-89
2021/12/09 11:06:38;;;;;;;7.83;4.07;;;2.50;1.00;196.50;224877.00;;;;4924183;29;20196;-88
2021/12/09 11:09:08;;;;;;;10.63;4.20;;;2.60;99.90;196.50;224877.00;;;;4908460;29;20243;-91
2021/12/09 11:11:43;;;;;;;10.10;4.17;;;2.50;99.90;196.50;224877.00;;;;4923694;29;20223;-89
2021/12/09 11:14:17;;;;;;;6.50;3.90;;;2.20;99.90;196.50;224877.00;;;;4922448;29;20191;-86
2021/12/09 11:16:49;;;;;;;8.70;3.77;;;2.10;99.90;196.50;224877.00;;;;4920414;29;20201;-91
2021/12/09 11:19:36;;;;;;;8.97;3.97;;;2.00;99.90;196.50;224877.00;;;;4929319;29;20210;-94
2021/12/09 11:22:08;;;;;;;7.37;3.33;;;2.00;99.90;196.50;224877.00;;;;4907265;29;20236;-90
2021/12/09 11:24:44;;;;;;;8.00;3.37;;;2.10;99.90;196.50;224877.00;;;;4907463;29;20196;-90
2021/12/09 11:27:23;;;;;;;7.93;3.00;;;2.20;99.90;196.50;224877.00;;;;4925520;29;20207;-93
2021/12/09 11:29:54;;;;;;;11.37;3.53;;;2.20;99.90;196.50;224877.00;;;;4909471;29;20293;-91